sensor_id;sensor_type;location;lat;lon;timestamp;pressure;altitude;pressure_sealevel;temperature;humidity
27040;BME280;14589;51.578;7.306;2023-05-16T00:01:48;101068.81;;;11.94;91.59
27040;BME280;14589;51.578;7.306;2023-05-16T00:04:21;101078.16;;;11.82;91.73
27040;BME280;14589;51.578;7.306;2023-05-16T00:06:52;101082.25;;;11.86;92.61
27040;BME280;14589;51.578;7.306;2023-05-16T00:09:23;101088.00;;;11.83;92.18
27040;BME280;14589;51.578;7.306;2023-05-16T00:11:54;101089.41;;;11.87;92.72
27040;BME280;14589;51.578;7.306;2023-05-16T00:14:27;101090.47;;;11.76;91.25
27040;BME280;14589;51.578;7.306;2023-05-16T00:16:57;101096.16;;;11.83;91.73
27040;BME280;14589;51.578;7.306;2023-05-16T00:19:28;101090.31;;;11.78;92.79
27040;BME280;14589;51.578;7.306;2023-05-16T00:21:59;101096.72;;;11.86;91.91
27040;BME280;14589;51.578;7.306;2023-05-16T00:24:29;101091.59;;;11.83;92.67
27040;BME280;14589;51.578;7.306;2023-05-16T00:27:00;101096.16;;;11.73;92.43
27040;BME280;14589;51.578;7.306;2023-05-16T00:29:30;101107.31;;;11.80;91.75
27040;BME280;14589;51.578;7.306;2023-05-16T00:32:02;101099.31;;;11.68;92.30
27040;BME280;14589;51.578;7.306;2023-05-16T00:34:32;101100.34;;;11.48;92.88
27040;BME280;14589;51.578;7.306;2023-05-16T00:37:02;101110.75;;;11.62;92.91
27040;BME280;14589;51.578;7.306;2023-05-16T00:39:34;101094.47;;;11.62;93.05
27040;BME280;14589;51.578;7.306;2023-05-16T00:42:06;101109.31;;;11.68;91.92
27040;BME280;14589;51.578;7.306;2023-05-16T00:44:36;101104.59;;;11.60;91.80
27040;BME280;14589;51.578;7.306;2023-05-16T00:47:06;101099.31;;;11.68;92.68
27040;BME280;14589;51.578;7.306;2023-05-16T00:49:37;101109.34;;;11.78;92.78
27040;BME280;14589;51.578;7.306;2023-05-16T00:52:07;101110.63;;;11.83;92.24
27040;BME280;14589;51.578;7.306;2023-05-16T00:54:38;101112.88;;;11.88;92.55
27040;BME280;14589;51.578;7.306;2023-05-16T00:57:12;101105.03;;;11.85;91.27
27040;BME280;14589;51.578;7.306;2023-05-16T00:59:45;101106.78;;;11.76;91.63
27040;BME280;14589;51.578;7.306;2023-05-16T01:02:15;101103.47;;;11.72;91.94
27040;BME280;14589;51.578;7.306;2023-05-16T01:04:46;101106.19;;;11.72;91.64
27040;BME280;14589;51.578;7.306;2023-05-16T01:07:17;101099.88;;;11.72;92.31
27040;BME280;14589;51.578;7.306;2023-05-16T01:09:48;101109.75;;;11.63;91.22
27040;BME280;14589;51.578;7.306;2023-05-16T01:12:47;101109.53;;;11.38;91.28
27040;BME280;14589;51.578;7.306;2023-05-16T01:15:29;101114.81;;;11.39;92.48
27040;BME280;14589;51.578;7.306;2023-05-16T01:18:24;101122.69;;;11.32;93.69
27040;BME280;14589;51.578;7.306;2023-05-16T01:21:01;101128.69;;;11.17;91.95
27040;BME280;14589;51.578;7.306;2023-05-16T01:23:50;101122.66;;;10.94;94.21
27040;BME280;14589;51.578;7.306;2023-05-16T01:26:22;101129.69;;;10.97;93.06
27040;BME280;14589;51.578;7.306;2023-05-16T01:28:54;101130.09;;;10.92;93.16
27040;BME280;14589;51.578;7.306;2023-05-16T01:31:25;101145.38;;;10.83;92.83
27040;BME280;14589;51.578;7.306;2023-05-16T01:33:55;101149.16;;;10.52;92.61
27040;BME280;14589;51.578;7.306;2023-05-16T01:36:30;101158.56;;;10.48;93.25
27040;BME280;14589;51.578;7.306;2023-05-16T01:42:02;101166.63;;;10.29;92.98
27040;BME280;14589;51.578;7.306;2023-05-16T01:44:43;101166.31;;;10.22;92.84
27040;BME280;14589;51.578;7.306;2023-05-16T01:47:16;101170.56;;;10.25;92.76
27040;BME280;14589;51.578;7.306;2023-05-16T01:49:57;101165.06;;;10.05;92.11
27040;BME280;14589;51.578;7.306;2023-05-16T01:52:52;101181.38;;;9.94;92.75
27040;BME280;14589;51.578;7.306;2023-05-16T01:55:36;101184.72;;;10.07;93.53
27040;BME280;14589;51.578;7.306;2023-05-16T01:58:09;101188.72;;;10.03;92.16
27040;BME280;14589;51.578;7.306;2023-05-16T02:00:40;101187.72;;;10.04;92.65
27040;BME280;14589;51.578;7.306;2023-05-16T02:03:11;101186.41;;;9.99;92.89
27040;BME280;14589;51.578;7.306;2023-05-16T02:05:41;101190.56;;;10.03;91.43
27040;BME280;14589;51.578;7.306;2023-05-16T02:08:15;101191.00;;;10.08;92.13
27040;BME280;14589;51.578;7.306;2023-05-16T02:10:46;101195.53;;;9.98;90.83
27040;BME280;14589;51.578;7.306;2023-05-16T02:13:16;101191.22;;;9.95;91.56
27040;BME280;14589;51.578;7.306;2023-05-16T02:15:47;101199.78;;;10.00;91.24
27040;BME280;14589;51.578;7.306;2023-05-16T02:18:17;101195.25;;;10.01;91.71
27040;BME280;14589;51.578;7.306;2023-05-16T02:20:48;101199.25;;;10.06;92.43
27040;BME280;14589;51.578;7.306;2023-05-16T02:23:19;101199.25;;;10.06;91.99
27040;BME280;14589;51.578;7.306;2023-05-16T02:25:49;101204.56;;;10.08;91.23
27040;BME280;14589;51.578;7.306;2023-05-16T02:28:20;101205.34;;;10.20;93.12
27040;BME280;14589;51.578;7.306;2023-05-16T02:30:57;101204.38;;;10.21;91.29
27040;BME280;14589;51.578;7.306;2023-05-16T02:33:28;101208.84;;;10.31;92.23
27040;BME280;14589;51.578;7.306;2023-05-16T02:35:58;101196.88;;;10.34;91.98
27040;BME280;14589;51.578;7.306;2023-05-16T02:38:29;101202.19;;;10.35;91.70
27040;BME280;14589;51.578;7.306;2023-05-16T02:41:00;101206.53;;;10.27;91.34
27040;BME280;14589;51.578;7.306;2023-05-16T02:43:30;101200.44;;;10.34;91.56
27040;BME280;14589;51.578;7.306;2023-05-16T02:46:03;101214.88;;;10.35;91.42
27040;BME280;14589;51.578;7.306;2023-05-16T02:48:34;101219.13;;;10.37;91.00
27040;BME280;14589;51.578;7.306;2023-05-16T02:51:05;101222.00;;;10.36;91.35
27040;BME280;14589;51.578;7.306;2023-05-16T02:53:35;101221.41;;;10.32;90.81
27040;BME280;14589;51.578;7.306;2023-05-16T02:56:05;101232.00;;;10.35;90.96
27040;BME280;14589;51.578;7.306;2023-05-16T02:58:36;101232.13;;;10.34;90.93
27040;BME280;14589;51.578;7.306;2023-05-16T03:01:07;101243.94;;;10.33;90.98
27040;BME280;14589;51.578;7.306;2023-05-16T03:03:37;101229.94;;;10.28;90.46
27040;BME280;14589;51.578;7.306;2023-05-16T03:06:08;101231.78;;;10.27;90.62
27040;BME280;14589;51.578;7.306;2023-05-16T03:08:38;101238.16;;;10.17;90.74
27040;BME280;14589;51.578;7.306;2023-05-16T03:11:09;101244.16;;;10.20;90.99
27040;BME280;14589;51.578;7.306;2023-05-16T03:13:39;101244.50;;;10.06;89.49
27040;BME280;14589;51.578;7.306;2023-05-16T03:16:10;101245.66;;;10.13;90.41
27040;BME280;14589;51.578;7.306;2023-05-16T03:18:41;101246.94;;;10.09;89.96
27040;BME280;14589;51.578;7.306;2023-05-16T03:21:12;101262.06;;;10.11;90.03
27040;BME280;14589;51.578;7.306;2023-05-16T03:23:42;101263.41;;;10.17;90.40
27040;BME280;14589;51.578;7.306;2023-05-16T03:26:12;101263.50;;;10.15;90.80
27040;BME280;14589;51.578;7.306;2023-05-16T03:28:43;101273.84;;;10.22;90.05
27040;BME280;14589;51.578;7.306;2023-05-16T03:31:13;101249.72;;;10.19;90.57
27040;BME280;14589;51.578;7.306;2023-05-16T03:33:44;101263.13;;;10.20;90.27
27040;BME280;14589;51.578;7.306;2023-05-16T03:36:14;101265.97;;;10.19;91.13
27040;BME280;14589;51.578;7.306;2023-05-16T03:38:45;101265.56;;;10.02;90.41
27040;BME280;14589;51.578;7.306;2023-05-16T03:41:15;101259.22;;;9.92;90.02
27040;BME280;14589;51.578;7.306;2023-05-16T03:43:46;101274.63;;;9.92;90.31
27040;BME280;14589;51.578;7.306;2023-05-16T03:46:16;101273.06;;;9.78;88.50
27040;BME280;14589;51.578;7.306;2023-05-16T03:48:47;101295.25;;;9.72;88.96
27040;BME280;14589;51.578;7.306;2023-05-16T03:51:17;101286.91;;;9.64;88.45
27040;BME280;14589;51.578;7.306;2023-05-16T03:53:48;101284.78;;;9.47;88.67
27040;BME280;14589;51.578;7.306;2023-05-16T03:56:18;101303.13;;;9.43;87.79
27040;BME280;14589;51.578;7.306;2023-05-16T03:58:49;101298.38;;;9.24;88.14
27040;BME280;14589;51.578;7.306;2023-05-16T04:01:19;101303.53;;;9.27;88.03
27040;BME280;14589;51.578;7.306;2023-05-16T04:03:49;101299.44;;;9.33;89.18
27040;BME280;14589;51.578;7.306;2023-05-16T04:06:20;101309.78;;;9.28;88.65
27040;BME280;14589;51.578;7.306;2023-05-16T04:08:51;101309.56;;;9.31;89.30
27040;BME280;14589;51.578;7.306;2023-05-16T04:11:21;101313.13;;;9.31;89.39
27040;BME280;14589;51.578;7.306;2023-05-16T04:13:51;101319.25;;;9.33;89.46
27040;BME280;14589;51.578;7.306;2023-05-16T04:16:23;101333.06;;;9.30;90.00
27040;BME280;14589;51.578;7.306;2023-05-16T04:18:54;101335.00;;;9.28;89.62
27040;BME280;14589;51.578;7.306;2023-05-16T04:21:25;101328.63;;;9.29;89.41
27040;BME280;14589;51.578;7.306;2023-05-16T04:23:55;101330.34;;;9.30;89.11
27040;BME280;14589;51.578;7.306;2023-05-16T04:26:26;101330.81;;;9.36;89.31
27040;BME280;14589;51.578;7.306;2023-05-16T04:28:57;101328.34;;;9.32;89.83
27040;BME280;14589;51.578;7.306;2023-05-16T04:31:27;101342.78;;;9.22;88.38
27040;BME280;14589;51.578;7.306;2023-05-16T04:33:57;101334.66;;;9.22;89.89
27040;BME280;14589;51.578;7.306;2023-05-16T04:36:28;101361.84;;;9.20;89.73
27040;BME280;14589;51.578;7.306;2023-05-16T04:38:59;101352.50;;;9.24;89.85
27040;BME280;14589;51.578;7.306;2023-05-16T04:41:29;101359.38;;;9.28;89.25
27040;BME280;14589;51.578;7.306;2023-05-16T04:44:01;101366.50;;;9.29;89.49
27040;BME280;14589;51.578;7.306;2023-05-16T04:46:35;101365.16;;;9.35;89.52
27040;BME280;14589;51.578;7.306;2023-05-16T04:49:06;101363.56;;;9.21;88.28
27040;BME280;14589;51.578;7.306;2023-05-16T04:51:37;101373.75;;;9.40;88.67
27040;BME280;14589;51.578;7.306;2023-05-16T04:54:08;101384.19;;;9.56;88.46
27040;BME280;14589;51.578;7.306;2023-05-16T04:56:39;101368.41;;;9.61;87.88
27040;BME280;14589;51.578;7.306;2023-05-16T04:59:10;101377.66;;;9.58;88.25
27040;BME280;14589;51.578;7.306;2023-05-16T05:01:40;101383.38;;;9.76;87.94
27040;BME280;14589;51.578;7.306;2023-05-16T05:04:11;101377.53;;;9.60;86.29
27040;BME280;14589;51.578;7.306;2023-05-16T05:06:41;101392.25;;;9.78;86.18
27040;BME280;14589;51.578;7.306;2023-05-16T05:09:12;101387.53;;;9.91;86.56
27040;BME280;14589;51.578;7.306;2023-05-16T05:11:43;101385.28;;;9.96;86.14
27040;BME280;14589;51.578;7.306;2023-05-16T05:14:13;101391.66;;;10.06;85.29
27040;BME280;14589;51.578;7.306;2023-05-16T05:16:43;101392.66;;;10.17;85.24
27040;BME280;14589;51.578;7.306;2023-05-16T05:19:14;101393.59;;;10.15;84.16
27040;BME280;14589;51.578;7.306;2023-05-16T05:21:44;101401.25;;;10.22;83.11
27040;BME280;14589;51.578;7.306;2023-05-16T05:24:14;101388.91;;;10.29;84.04
27040;BME280;14589;51.578;7.306;2023-05-16T05:26:45;101408.22;;;10.35;83.43
27040;BME280;14589;51.578;7.306;2023-05-16T05:29:15;101408.78;;;10.18;81.73
27040;BME280;14589;51.578;7.306;2023-05-16T05:31:46;101408.25;;;10.13;81.87
27040;BME280;14589;51.578;7.306;2023-05-16T05:34:16;101413.00;;;10.32;82.40
27040;BME280;14589;51.578;7.306;2023-05-16T05:36:46;101427.19;;;10.35;82.17
27040;BME280;14589;51.578;7.306;2023-05-16T05:39:17;101425.84;;;10.30;81.53
27040;BME280;14589;51.578;7.306;2023-05-16T05:41:47;101414.56;;;10.45;79.81
27040;BME280;14589;51.578;7.306;2023-05-16T05:44:18;101424.22;;;10.59;81.03
27040;BME280;14589;51.578;7.306;2023-05-16T05:46:48;101431.56;;;10.89;79.55
27040;BME280;14589;51.578;7.306;2023-05-16T05:49:19;101424.47;;;10.98;78.41
27040;BME280;14589;51.578;7.306;2023-05-16T05:51:49;101426.69;;;11.13;78.51
27040;BME280;14589;51.578;7.306;2023-05-16T05:54:22;101431.00;;;11.16;77.93
27040;BME280;14589;51.578;7.306;2023-05-16T05:56:53;101438.50;;;11.33;78.12
27040;BME280;14589;51.578;7.306;2023-05-16T05:59:23;101440.75;;;10.98;77.39
27040;BME280;14589;51.578;7.306;2023-05-16T06:01:53;101441.34;;;11.01;78.31
27040;BME280;14589;51.578;7.306;2023-05-16T06:04:24;101435.50;;;11.06;77.53
27040;BME280;14589;51.578;7.306;2023-05-16T06:06:55;101440.25;;;11.44;77.74
27040;BME280;14589;51.578;7.306;2023-05-16T06:09:25;101450.09;;;11.35;76.88
27040;BME280;14589;51.578;7.306;2023-05-16T06:11:55;101442.84;;;11.45;76.16
27040;BME280;14589;51.578;7.306;2023-05-16T06:14:26;101447.41;;;11.45;75.67
27040;BME280;14589;51.578;7.306;2023-05-16T06:16:56;101433.84;;;11.54;76.25
27040;BME280;14589;51.578;7.306;2023-05-16T06:19:27;101454.34;;;11.68;75.55
27040;BME280;14589;51.578;7.306;2023-05-16T06:21:57;101449.34;;;11.63;75.52
27040;BME280;14589;51.578;7.306;2023-05-16T06:24:27;101452.59;;;11.57;76.50
27040;BME280;14589;51.578;7.306;2023-05-16T06:27:00;101449.56;;;11.41;75.67
27040;BME280;14589;51.578;7.306;2023-05-16T06:29:31;101455.13;;;11.40;75.27
27040;BME280;14589;51.578;7.306;2023-05-16T06:32:01;101460.56;;;11.49;74.42
27040;BME280;14589;51.578;7.306;2023-05-16T06:34:32;101466.56;;;11.43;75.23
27040;BME280;14589;51.578;7.306;2023-05-16T06:37:02;101459.34;;;11.63;74.95
27040;BME280;14589;51.578;7.306;2023-05-16T06:39:33;101452.78;;;11.65;73.45
27040;BME280;14589;51.578;7.306;2023-05-16T06:42:03;101459.00;;;11.87;72.28
27040;BME280;14589;51.578;7.306;2023-05-16T06:44:35;101456.13;;;11.48;73.56
27040;BME280;14589;51.578;7.306;2023-05-16T06:47:06;101466.31;;;11.56;72.76
27040;BME280;14589;51.578;7.306;2023-05-16T06:49:36;101458.56;;;11.82;72.74
27040;BME280;14589;51.578;7.306;2023-05-16T06:52:06;101469.91;;;11.56;72.19
27040;BME280;14589;51.578;7.306;2023-05-16T06:54:37;101463.38;;;11.68;72.73
27040;BME280;14589;51.578;7.306;2023-05-16T06:57:07;101463.22;;;11.70;73.68
27040;BME280;14589;51.578;7.306;2023-05-16T06:59:38;101466.19;;;11.88;72.43
27040;BME280;14589;51.578;7.306;2023-05-16T07:02:08;101451.41;;;11.81;68.96
27040;BME280;14589;51.578;7.306;2023-05-16T07:04:39;101465.91;;;11.91;69.50
27040;BME280;14589;51.578;7.306;2023-05-16T07:07:09;101457.34;;;12.05;68.64
27040;BME280;14589;51.578;7.306;2023-05-16T07:09:40;101454.66;;;12.24;68.62
27040;BME280;14589;51.578;7.306;2023-05-16T07:12:10;101471.00;;;12.34;67.30
27040;BME280;14589;51.578;7.306;2023-05-16T07:14:41;101476.28;;;12.26;67.01
27040;BME280;14589;51.578;7.306;2023-05-16T07:17:13;101470.13;;;12.43;66.54
27040;BME280;14589;51.578;7.306;2023-05-16T07:19:44;101468.13;;;12.45;65.22
27040;BME280;14589;51.578;7.306;2023-05-16T07:22:15;101472.94;;;12.12;65.35
27040;BME280;14589;51.578;7.306;2023-05-16T07:24:45;101465.81;;;12.79;65.24
27040;BME280;14589;51.578;7.306;2023-05-16T07:27:15;101457.22;;;12.83;63.45
27040;BME280;14589;51.578;7.306;2023-05-16T07:29:46;101463.34;;;13.14;63.40
27040;BME280;14589;51.578;7.306;2023-05-16T07:32:17;101468.88;;;13.69;61.52
27040;BME280;14589;51.578;7.306;2023-05-16T07:34:50;101469.13;;;13.75;58.91
27040;BME280;14589;51.578;7.306;2023-05-16T07:37:20;101474.16;;;13.98;60.30
27040;BME280;14589;51.578;7.306;2023-05-16T07:39:51;101475.44;;;14.03;61.17
27040;BME280;14589;51.578;7.306;2023-05-16T07:42:21;101476.75;;;13.99;59.25
27040;BME280;14589;51.578;7.306;2023-05-16T07:44:51;101479.63;;;13.98;60.19
27040;BME280;14589;51.578;7.306;2023-05-16T07:47:22;101474.84;;;13.82;59.29
27040;BME280;14589;51.578;7.306;2023-05-16T07:49:52;101474.34;;;13.32;57.97
27040;BME280;14589;51.578;7.306;2023-05-16T07:52:26;101481.06;;;13.65;59.88
27040;BME280;14589;51.578;7.306;2023-05-16T07:54:56;101482.75;;;14.03;59.80
27040;BME280;14589;51.578;7.306;2023-05-16T07:57:27;101484.72;;;14.10;56.31
27040;BME280;14589;51.578;7.306;2023-05-16T07:59:58;101487.69;;;14.17;51.50
27040;BME280;14589;51.578;7.306;2023-05-16T08:02:28;101483.38;;;14.14;50.50
27040;BME280;14589;51.578;7.306;2023-05-16T08:04:59;101488.06;;;14.49;49.26
27040;BME280;14589;51.578;7.306;2023-05-16T08:07:30;101480.19;;;14.64;48.39
27040;BME280;14589;51.578;7.306;2023-05-16T08:10:00;101478.41;;;14.10;46.57
27040;BME280;14589;51.578;7.306;2023-05-16T08:12:31;101483.91;;;14.63;46.93
27040;BME280;14589;51.578;7.306;2023-05-16T08:15:02;101486.22;;;14.50;46.87
27040;BME280;14589;51.578;7.306;2023-05-16T08:17:33;101493.22;;;14.52;48.11
27040;BME280;14589;51.578;7.306;2023-05-16T08:20:03;101494.41;;;13.95;47.62
27040;BME280;14589;51.578;7.306;2023-05-16T08:22:35;101486.41;;;13.20;48.97
27040;BME280;14589;51.578;7.306;2023-05-16T08:25:05;101484.38;;;13.31;49.91
27040;BME280;14589;51.578;7.306;2023-05-16T08:27:36;101480.47;;;13.44;49.46
27040;BME280;14589;51.578;7.306;2023-05-16T08:30:10;101485.91;;;13.81;49.11
27040;BME280;14589;51.578;7.306;2023-05-16T08:32:41;101486.16;;;13.87;48.76
27040;BME280;14589;51.578;7.306;2023-05-16T08:35:11;101491.03;;;13.84;48.16
27040;BME280;14589;51.578;7.306;2023-05-16T08:37:42;101491.91;;;14.29;48.85
27040;BME280;14589;51.578;7.306;2023-05-16T08:40:12;101490.00;;;14.57;48.00
27040;BME280;14589;51.578;7.306;2023-05-16T08:42:44;101490.63;;;14.86;44.22
27040;BME280;14589;51.578;7.306;2023-05-16T08:45:15;101494.41;;;15.11;45.05
27040;BME280;14589;51.578;7.306;2023-05-16T08:47:53;101486.53;;;15.34;44.29
27040;BME280;14589;51.578;7.306;2023-05-16T08:50:24;101490.34;;;15.41;41.97
27040;BME280;14589;51.578;7.306;2023-05-16T08:52:55;101482.41;;;15.56;41.54
27040;BME280;14589;51.578;7.306;2023-05-16T08:55:26;101483.94;;;15.84;41.45
27040;BME280;14589;51.578;7.306;2023-05-16T08:57:56;101485.97;;;16.48;41.31
27040;BME280;14589;51.578;7.306;2023-05-16T09:00:27;101488.75;;;16.56;37.96
27040;BME280;14589;51.578;7.306;2023-05-16T09:02:58;101477.41;;;16.27;37.41
27040;BME280;14589;51.578;7.306;2023-05-16T09:05:29;101489.72;;;16.23;38.76
27040;BME280;14589;51.578;7.306;2023-05-16T09:08:00;101479.63;;;16.32;42.47
27040;BME280;14589;51.578;7.306;2023-05-16T09:10:31;101486.16;;;16.55;41.33
27040;BME280;14589;51.578;7.306;2023-05-16T09:13:01;101480.06;;;16.11;41.78
27040;BME280;14589;51.578;7.306;2023-05-16T09:15:32;101486.81;;;15.83;42.53
27040;BME280;14589;51.578;7.306;2023-05-16T09:18:03;101487.53;;;15.93;42.89
27040;BME280;14589;51.578;7.306;2023-05-16T09:20:34;101488.44;;;15.59;41.94
27040;BME280;14589;51.578;7.306;2023-05-16T09:23:04;101495.94;;;15.57;41.06
27040;BME280;14589;51.578;7.306;2023-05-16T09:25:35;101494.38;;;15.89;41.11
27040;BME280;14589;51.578;7.306;2023-05-16T09:28:09;101492.31;;;16.41;41.01
27040;BME280;14589;51.578;7.306;2023-05-16T09:30:45;101488.13;;;16.95;39.29
27040;BME280;14589;51.578;7.306;2023-05-16T09:33:15;101476.28;;;17.11;38.63
27040;BME280;14589;51.578;7.306;2023-05-16T09:35:46;101482.28;;;17.86;38.09
27040;BME280;14589;51.578;7.306;2023-05-16T09:38:25;101475.19;;;18.07;37.16
27040;BME280;14589;51.578;7.306;2023-05-16T09:40:56;101481.44;;;18.55;37.00
27040;BME280;14589;51.578;7.306;2023-05-16T09:43:27;101471.50;;;18.15;35.74
27040;BME280;14589;51.578;7.306;2023-05-16T09:45:58;101470.91;;;17.50;37.19
27040;BME280;14589;51.578;7.306;2023-05-16T09:48:29;101471.28;;;17.30;36.05
27040;BME280;14589;51.578;7.306;2023-05-16T09:51:00;101472.78;;;17.41;36.71
27040;BME280;14589;51.578;7.306;2023-05-16T09:53:36;101470.31;;;17.07;37.01
27040;BME280;14589;51.578;7.306;2023-05-16T09:56:11;101465.50;;;16.93;37.16
27040;BME280;14589;51.578;7.306;2023-05-16T09:58:43;101467.88;;;17.12;36.98
27040;BME280;14589;51.578;7.306;2023-05-16T10:01:14;101462.91;;;17.16;36.95
27040;BME280;14589;51.578;7.306;2023-05-16T10:03:45;101464.78;;;17.23;36.44
27040;BME280;14589;51.578;7.306;2023-05-16T10:06:15;101458.50;;;16.82;39.13
27040;BME280;14589;51.578;7.306;2023-05-16T10:08:47;101458.66;;;17.21;37.62
27040;BME280;14589;51.578;7.306;2023-05-16T10:11:19;101463.75;;;17.32;37.54
27040;BME280;14589;51.578;7.306;2023-05-16T10:13:50;101464.50;;;17.02;36.95
27040;BME280;14589;51.578;7.306;2023-05-16T10:16:22;101471.28;;;16.49;38.01
27040;BME280;14589;51.578;7.306;2023-05-16T10:18:53;101466.47;;;16.35;38.24
27040;BME280;14589;51.578;7.306;2023-05-16T10:21:27;101458.66;;;16.81;37.61
27040;BME280;14589;51.578;7.306;2023-05-16T10:23:58;101464.38;;;17.51;39.05
27040;BME280;14589;51.578;7.306;2023-05-16T10:26:32;101461.50;;;17.91;36.25
27040;BME280;14589;51.578;7.306;2023-05-16T10:29:03;101472.38;;;18.15;35.67
27040;BME280;14589;51.578;7.306;2023-05-16T10:31:35;101462.44;;;18.14;34.93
27040;BME280;14589;51.578;7.306;2023-05-16T10:34:06;101473.66;;;18.28;34.28
27040;BME280;14589;51.578;7.306;2023-05-16T10:36:37;101457.88;;;18.30;36.28
27040;BME280;14589;51.578;7.306;2023-05-16T10:39:09;101469.41;;;17.94;35.60
27040;BME280;14589;51.578;7.306;2023-05-16T10:41:41;101445.31;;;17.65;36.02
27040;BME280;14589;51.578;7.306;2023-05-16T10:44:13;101456.94;;;17.12;37.54
27040;BME280;14589;51.578;7.306;2023-05-16T10:46:47;101456.59;;;17.78;37.53
27040;BME280;14589;51.578;7.306;2023-05-16T10:49:24;101457.31;;;18.65;37.29
27040;BME280;14589;51.578;7.306;2023-05-16T10:52:11;101442.91;;;18.63;35.31
27040;BME280;14589;51.578;7.306;2023-05-16T10:54:49;101450.16;;;18.79;34.71
27040;BME280;14589;51.578;7.306;2023-05-16T10:57:22;101455.41;;;18.66;34.65
27040;BME280;14589;51.578;7.306;2023-05-16T10:59:52;101447.19;;;18.88;34.98
27040;BME280;14589;51.578;7.306;2023-05-16T11:02:30;101442.34;;;18.68;35.21
27040;BME280;14589;51.578;7.306;2023-05-16T11:05:05;101455.31;;;18.82;34.68
27040;BME280;14589;51.578;7.306;2023-05-16T11:07:36;101452.41;;;18.98;35.08
27040;BME280;14589;51.578;7.306;2023-05-16T11:10:08;101449.47;;;19.52;35.20
27040;BME280;14589;51.578;7.306;2023-05-16T11:12:48;101448.88;;;19.86;33.95
27040;BME280;14589;51.578;7.306;2023-05-16T11:15:26;101451.78;;;20.49;33.99
27040;BME280;14589;51.578;7.306;2023-05-16T11:20:39;101443.25;;;21.15;33.51
27040;BME280;14589;51.578;7.306;2023-05-16T11:23:21;101462.41;;;20.95;31.39
27040;BME280;14589;51.578;7.306;2023-05-16T11:25:56;101440.97;;;21.18;33.89
27040;BME280;14589;51.578;7.306;2023-05-16T11:28:27;101432.69;;;21.18;31.72
27040;BME280;14589;51.578;7.306;2023-05-16T11:30:58;101427.72;;;20.22;31.90
27040;BME280;14589;51.578;7.306;2023-05-16T11:33:29;101432.56;;;20.35;33.49
27040;BME280;14589;51.578;7.306;2023-05-16T11:36:04;101437.41;;;20.33;34.00
27040;BME280;14589;51.578;7.306;2023-05-16T11:38:35;101432.13;;;20.16;33.54
27040;BME280;14589;51.578;7.306;2023-05-16T11:41:07;101441.34;;;19.21;34.41
27040;BME280;14589;51.578;7.306;2023-05-16T11:43:42;101456.22;;;18.74;35.86
27040;BME280;14589;51.578;7.306;2023-05-16T11:46:14;101470.69;;;17.75;40.19
27040;BME280;14589;51.578;7.306;2023-05-16T11:48:45;101468.22;;;17.17;48.89
27040;BME280;14589;51.578;7.306;2023-05-16T11:51:19;101484.59;;;16.36;52.79
27040;BME280;14589;51.578;7.306;2023-05-16T11:53:50;101471.63;;;15.88;52.98
27040;BME280;14589;51.578;7.306;2023-05-16T11:56:20;101474.41;;;15.62;53.65
27040;BME280;14589;51.578;7.306;2023-05-16T11:58:52;101476.44;;;15.94;56.73
27040;BME280;14589;51.578;7.306;2023-05-16T12:01:22;101476.31;;;16.04;56.38
27040;BME280;14589;51.578;7.306;2023-05-16T12:03:56;101463.66;;;16.03;56.67
27040;BME280;14589;51.578;7.306;2023-05-16T12:06:27;101473.75;;;16.77;60.42
27040;BME280;14589;51.578;7.306;2023-05-16T12:08:58;101470.63;;;17.12;54.83
27040;BME280;14589;51.578;7.306;2023-05-16T12:11:31;101453.59;;;17.49;54.43
27040;BME280;14589;51.578;7.306;2023-05-16T12:14:02;101460.47;;;17.45;51.12
27040;BME280;14589;51.578;7.306;2023-05-16T12:16:33;101457.56;;;17.38;52.97
27040;BME280;14589;51.578;7.306;2023-05-16T12:19:06;101450.91;;;17.17;48.74
27040;BME280;14589;51.578;7.306;2023-05-16T12:21:37;101458.66;;;16.89;48.10
27040;BME280;14589;51.578;7.306;2023-05-16T12:24:09;101456.84;;;16.15;45.48
27040;BME280;14589;51.578;7.306;2023-05-16T12:26:41;101460.22;;;16.01;44.99
27040;BME280;14589;51.578;7.306;2023-05-16T12:29:12;101463.06;;;15.83;46.35
27040;BME280;14589;51.578;7.306;2023-05-16T12:31:42;101453.31;;;15.81;47.00
27040;BME280;14589;51.578;7.306;2023-05-16T12:34:17;101454.44;;;16.04;47.46
27040;BME280;14589;51.578;7.306;2023-05-16T12:36:51;101465.03;;;16.07;46.59
27040;BME280;14589;51.578;7.306;2023-05-16T12:39:22;101448.22;;;15.94;46.86
27040;BME280;14589;51.578;7.306;2023-05-16T12:41:53;101457.75;;;16.56;45.12
27040;BME280;14589;51.578;7.306;2023-05-16T12:44:28;101454.19;;;17.12;46.60
27040;BME280;14589;51.578;7.306;2023-05-16T12:46:59;101452.13;;;17.06;42.14
27040;BME280;14589;51.578;7.306;2023-05-16T12:49:32;101456.94;;;17.04;41.20
27040;BME280;14589;51.578;7.306;2023-05-16T12:52:02;101453.81;;;17.23;41.11
27040;BME280;14589;51.578;7.306;2023-05-16T12:54:34;101451.28;;;16.97;40.33
27040;BME280;14589;51.578;7.306;2023-05-16T12:57:05;101461.41;;;16.81;40.71
27040;BME280;14589;51.578;7.306;2023-05-16T12:59:36;101466.13;;;16.38;42.26
27040;BME280;14589;51.578;7.306;2023-05-16T13:02:06;101453.63;;;16.28;41.13
27040;BME280;14589;51.578;7.306;2023-05-16T13:04:37;101459.28;;;16.42;42.13
27040;BME280;14589;51.578;7.306;2023-05-16T13:07:07;101456.94;;;17.20;40.47
27040;BME280;14589;51.578;7.306;2023-05-16T13:09:38;101452.88;;;17.55;39.36
27040;BME280;14589;51.578;7.306;2023-05-16T13:12:08;101460.84;;;17.89;38.73
27040;BME280;14589;51.578;7.306;2023-05-16T13:14:38;101457.13;;;18.13;37.19
27040;BME280;14589;51.578;7.306;2023-05-16T13:17:09;101461.69;;;18.97;36.25
27040;BME280;14589;51.578;7.306;2023-05-16T13:19:41;101459.47;;;20.03;34.52